Time;durP1;ratioP1;P1;durP2;ratioP2;P2;SDS_P1;SDS_P2;PMS_P1;PMS_P2;Temp;Humidity;BMP_temperature;BMP_pressure;BME280_temperature;BME280_humidity;BME280_pressure;Samples;Min_cycle;Max_cycle;Signal;HPM_P1;HPM_P2
2023/02/07 00:01:34;;;;;;;11.52;7.82;;;;;;;14.29;39.27;102468.84;5051965;28;20063;-53
2023/02/07 00:04:03;;;;;;;13.25;8.18;;;;;;;14.27;39.50;102481.44;5052215;28;20056;-54
2023/02/07 00:06:34;;;;;;;15.30;8.93;;;;;;;14.23;39.26;102490.56;5052065;28;20052;-53
2023/02/07 00:09:08;;;;;;;14.70;8.73;;;;;;;14.21;39.47;102492.44;5051877;28;20048;-52
2023/02/07 00:11:39;;;;;;;12.23;8.27;;;;;;;14.17;39.06;102492.59;5052312;28;20048;-53
2023/02/07 00:14:10;;;;;;;12.07;7.72;;;;;;;14.13;39.36;102493.66;5051858;28;20067;-51
2023/02/07 00:16:38;;;;;;;14.70;8.77;;;;;;;14.10;39.26;102489.31;5052008;28;20378;-50
2023/02/07 00:19:07;;;;;;;13.93;8.75;;;;;;;14.09;39.21;102506.34;5051730;28;20041;-50
2023/02/07 00:21:37;;;;;;;14.43;8.98;;;;;;;14.06;39.33;102517.19;5051812;28;20043;-51
2023/02/07 00:24:06;;;;;;;14.27;8.90;;;;;;;14.02;39.32;102507.50;5051656;28;20048;-52
2023/02/07 00:26:34;;;;;;;16.10;8.88;;;;;;;13.95;39.49;102501.50;5051618;28;20127;-50
2023/02/07 00:29:02;;;;;;;11.90;8.70;;;;;;;13.96;39.16;102497.00;5051594;28;20045;-51
2023/02/07 00:31:32;;;;;;;13.75;8.60;;;;;;;13.93;39.54;102510.56;5051766;28;20053;-52
2023/02/07 00:34:04;;;;;;;13.13;8.38;;;;;;;13.90;39.52;102511.56;5051742;28;20554;-50
2023/02/07 00:36:34;;;;;;;14.80;8.55;;;;;;;13.88;39.65;102515.19;5051689;28;20504;-50
2023/02/07 00:39:06;;;;;;;14.32;8.68;;;;;;;13.92;40.17;102512.34;5051789;28;20049;-52
2023/02/07 00:41:35;;;;;;;14.75;9.48;;;;;;;13.97;40.12;102514.84;5051585;28;20056;-51
2023/02/07 00:44:03;;;;;;;13.10;8.70;;;;;;;14.07;39.99;102510.88;5051578;28;20053;-50
2023/02/07 00:46:32;;;;;;;13.15;8.48;;;;;;;14.15;40.04;102495.34;5051317;28;20056;-51
2023/02/07 00:49:00;;;;;;;12.88;8.82;;;;;;;14.23;39.95;102501.28;5051476;28;20051;-53
2023/02/07 00:51:28;;;;;;;13.85;8.65;;;;;;;14.35;39.93;102499.91;5051612;28;20049;-53
2023/02/07 00:53:57;;;;;;;13.32;8.93;;;;;;;14.45;39.79;102500.44;5051607;28;20052;-51
2023/02/07 00:56:29;;;;;;;12.55;8.68;;;;;;;14.53;39.45;102492.97;5051419;28;20052;-53
2023/02/07 00:58:57;;;;;;;14.85;9.13;;;;;;;14.63;39.38;102499.69;5051360;28;20490;-54
2023/02/07 01:01:27;;;;;;;15.15;8.90;;;;;;;14.74;39.37;102497.44;5051353;28;20049;-52
2023/02/07 01:03:56;;;;;;;14.20;8.77;;;;;;;14.82;38.92;102498.00;5051610;28;20045;-54
2023/02/07 01:06:24;;;;;;;14.73;8.93;;;;;;;14.92;38.94;102497.59;5051236;28;20498;-53
2023/02/07 01:08:56;;;;;;;12.50;8.45;;;;;;;14.99;38.88;102496.41;5051315;28;20045;-51
2023/02/07 01:11:24;;;;;;;14.70;9.05;;;;;;;15.05;38.83;102496.13;5051334;28;20079;-52
2023/02/07 01:13:54;;;;;;;14.70;9.25;;;;;;;15.08;38.87;102501.38;5051168;28;20609;-51
2023/02/07 01:16:24;;;;;;;13.82;9.20;;;;;;;15.08;38.88;102496.00;5051271;28;20043;-52
2023/02/07 01:18:52;;;;;;;14.50;8.88;;;;;;;15.08;38.65;102496.00;5051241;28;20041;-51
2023/02/07 01:21:23;;;;;;;15.02;9.55;;;;;;;15.07;38.88;102491.56;5051432;28;20045;-51
2023/02/07 01:23:55;;;;;;;16.08;9.93;;;;;;;15.04;38.83;102483.63;5051273;28;20128;-52
2023/02/07 01:26:24;;;;;;;14.77;9.85;;;;;;;15.02;38.72;102474.75;5051057;28;20513;-51
2023/02/07 01:28:55;;;;;;;15.55;10.00;;;;;;;14.99;38.81;102480.28;5051420;28;20052;-51
2023/02/07 01:31:24;;;;;;;13.95;9.07;;;;;;;14.96;38.88;102477.69;5051181;28;20094;-51
2023/02/07 01:33:56;;;;;;;17.33;10.30;;;;;;;14.89;38.82;102469.94;5051117;28;20040;-51
2023/02/07 01:36:25;;;;;;;13.45;9.18;;;;;;;14.87;38.92;102471.81;5051089;28;20453;-52
2023/02/07 01:38:54;;;;;;;15.23;9.57;;;;;;;14.81;38.85;102461.31;5052832;28;20048;-54
2023/02/07 01:41:24;;;;;;;14.18;9.50;;;;;;;14.79;38.78;102462.34;5054631;28;20048;-52
2023/02/07 01:44:05;;;;;;;17.80;9.70;;;;;;;14.74;38.71;102453.56;5054665;28;20041;-51
2023/02/07 01:46:35;;;;;;;16.40;9.63;;;;;;;14.67;38.60;102453.00;5054437;28;20052;-52
2023/02/07 01:49:12;;;;;;;14.20;9.50;;;;;;;14.65;38.71;102448.59;5054544;28;20083;-51
2023/02/07 01:51:48;;;;;;;15.68;10.00;;;;;;;14.60;38.53;102446.13;5054596;28;20045;-51
2023/02/07 01:54:18;;;;;;;17.05;10.27;;;;;;;14.58;38.51;102448.00;5054422;28;20041;-50
2023/02/07 01:56:53;;;;;;;16.48;10.38;;;;;;;14.52;38.32;102454.50;5054426;28;20044;-51
2023/02/07 01:59:24;;;;;;;14.60;9.85;;;;;;;14.49;38.49;102445.72;5054340;28;20053;-51
2023/02/07 02:01:52;;;;;;;15.43;9.90;;;;;;;14.43;38.42;102444.09;5054049;28;20055;-51
2023/02/07 02:04:21;;;;;;;15.38;9.98;;;;;;;14.39;38.50;102436.25;5054266;28;20490;-52
2023/02/07 02:06:49;;;;;;;14.55;9.82;;;;;;;14.36;38.56;102441.72;5054149;28;20049;-52
2023/02/07 02:09:17;;;;;;;14.65;9.80;;;;;;;14.31;38.64;102432.06;5054221;28;20406;-53
2023/02/07 02:12:08;;;;;;;14.55;9.68;;;;;;;14.24;38.74;102438.63;5054063;28;20398;-51
2023/02/07 02:14:53;;;;;;;14.18;9.93;;;;;;;14.21;38.26;102444.13;5045175;28;20088;-52
2023/02/07 02:17:29;;;;;;;13.73;9.93;;;;;;;14.16;38.58;102446.09;5054099;28;20565;-52
2023/02/07 02:20:33;;;;;;;14.68;9.52;;;;;;;14.11;38.79;102448.13;5053840;28;20053;-51
2023/02/07 02:23:17;;;;;;;14.75;9.93;;;;;;;14.07;38.56;102438.41;5051957;28;20057;-51
2023/02/07 02:26:12;;;;;;;16.48;10.13;;;;;;;13.99;38.76;102437.84;5053801;28;20090;-51
2023/02/07 02:29:31;;;;;;;14.68;10.20;;;;;;;13.94;39.11;102434.50;5053842;28;20106;-52
2023/02/07 02:32:26;;;;;;;15.50;9.82;;;;;;;13.91;38.94;102440.00;4995825;28;20105;-53
2023/02/07 02:35:07;;;;;;;15.68;9.80;;;;;;;13.85;39.14;102434.84;5053689;28;20110;-51
2023/02/07 02:37:46;;;;;;;16.55;10.15;;;;;;;13.80;38.91;102432.38;5053588;28;20056;-52
2023/02/07 02:40:26;;;;;;;16.80;10.93;;;;;;;13.77;39.04;102437.81;5053598;28;20178;-52
2023/02/07 02:43:02;;;;;;;17.30;9.73;;;;;;;13.72;39.09;102446.06;5053752;28;20102;-51
2023/02/07 02:45:35;;;;;;;14.30;10.30;;;;;;;13.67;39.20;102428.38;5053338;28;20045;-54
2023/02/07 02:48:06;;;;;;;15.18;9.60;;;;;;;13.63;39.27;102432.13;5053418;28;20482;-51
2023/02/07 02:50:35;;;;;;;16.90;10.70;;;;;;;13.60;38.86;102438.47;5052527;28;20049;-51
2023/02/07 02:53:04;;;;;;;15.35;10.05;;;;;;;13.56;39.13;102428.81;5053530;28;20421;-51
2023/02/07 02:55:49;;;;;;;15.77;10.40;;;;;;;13.52;38.99;102424.50;5053476;28;20055;-53
2023/02/07 02:58:28;;;;;;;15.82;10.13;;;;;;;13.49;38.93;102427.28;5053189;28;20052;-50
2023/02/07 03:01:08;;;;;;;14.63;9.57;;;;;;;13.45;39.19;102431.03;5053072;28;20092;-55
2023/02/07 03:03:59;;;;;;;14.95;9.75;;;;;;;13.42;39.22;102445.44;5053170;28;20045;-50
2023/02/07 03:06:37;;;;;;;13.77;9.40;;;;;;;13.42;39.56;102437.38;5053034;28;20566;-50
2023/02/07 03:09:17;;;;;;;15.70;10.07;;;;;;;13.44;39.71;102440.88;5053216;28;20047;-53
2023/02/07 03:11:53;;;;;;;15.05;10.43;;;;;;;13.53;39.60;102444.16;5052950;28;20135;-51
2023/02/07 03:14:28;;;;;;;14.77;9.50;;;;;;;13.62;39.54;102439.31;5052936;28;20073;-51
2023/02/07 03:17:03;;;;;;;14.73;9.35;;;;;;;13.70;39.51;102431.84;5052752;28;20128;-54
2023/02/07 03:19:40;;;;;;;14.85;9.40;;;;;;;13.82;39.44;102434.97;5053082;28;20049;-54
2023/02/07 03:22:13;;;;;;;13.18;9.32;;;;;;;13.90;39.28;102444.47;5052615;28;20079;-52
2023/02/07 03:24:45;;;;;;;14.65;9.75;;;;;;;13.96;39.11;102438.84;5052517;28;20052;-50
2023/02/07 03:27:15;;;;;;;15.10;9.75;;;;;;;14.04;38.88;102436.75;5052437;28;20421;-52
2023/02/07 03:29:47;;;;;;;13.05;9.13;;;;;;;14.17;38.83;102442.47;5052373;28;20094;-49
2023/02/07 03:32:18;;;;;;;15.23;9.65;;;;;;;14.26;38.88;102436.72;5052499;28;20380;-52
2023/02/07 03:34:53;;;;;;;13.63;9.60;;;;;;;14.38;38.74;102445.22;5052508;28;20612;-51
2023/02/07 03:37:27;;;;;;;13.90;9.65;;;;;;;14.46;38.54;102441.31;5052361;28;20048;-52
2023/02/07 03:39:56;;;;;;;12.75;8.98;;;;;;;14.54;38.44;102438.31;5052471;28;20044;-53
2023/02/07 03:42:31;;;;;;;14.65;9.50;;;;;;;14.60;38.20;102438.06;5052453;28;20128;-52
2023/02/07 03:45:01;;;;;;;15.73;9.73;;;;;;;14.60;38.08;102425.50;5052520;28;20453;-51
2023/02/07 03:47:30;;;;;;;15.60;9.70;;;;;;;14.65;38.33;102436.03;5052115;28;20045;-52
2023/02/07 03:49:58;;;;;;;14.88;9.63;;;;;;;14.63;38.32;102434.38;5052106;28;20055;-53
2023/02/07 03:52:28;;;;;;;12.95;9.25;;;;;;;14.60;38.40;102425.50;5052106;28;20044;-50
2023/02/07 03:54:56;;;;;;;13.88;9.50;;;;;;;14.60;38.19;102440.75;5052031;28;20049;-50
2023/02/07 03:57:24;;;;;;;15.07;9.77;;;;;;;14.55;38.15;102427.50;5052020;28;20072;-52
2023/02/07 03:59:52;;;;;;;14.00;9.30;;;;;;;14.51;38.18;102431.28;5051833;28;20041;-51
2023/02/07 04:02:20;;;;;;;13.45;9.57;;;;;;;14.48;38.18;102423.34;5051724;28;20060;-52
2023/02/07 04:04:49;;;;;;;13.77;9.68;;;;;;;14.44;38.22;102420.81;5051875;28;20094;-51
2023/02/07 04:07:17;;;;;;;14.95;9.68;;;;;;;14.37;38.29;102414.81;5051697;28;20136;-54
2023/02/07 04:09:46;;;;;;;14.13;9.38;;;;;;;14.37;38.18;102420.19;5051703;28;20052;-51
2023/02/07 04:12:15;;;;;;;13.77;9.60;;;;;;;14.31;37.97;102413.28;5051958;28;20447;-51
2023/02/07 04:14:43;;;;;;;14.27;9.25;;;;;;;14.27;38.00;102427.75;5051779;28;20071;-55
2023/02/07 04:17:11;;;;;;;14.32;9.27;;;;;;;14.23;38.17;102436.00;5051779;28;20045;-51
2023/02/07 04:19:39;;;;;;;14.93;9.90;;;;;;;14.17;37.98;102423.69;5051677;28;20041;-54
2023/02/07 04:22:09;;;;;;;15.98;10.02;;;;;;;14.15;38.34;102428.25;5051829;28;20052;-51
2023/02/07 04:24:38;;;;;;;14.70;9.90;;;;;;;14.12;38.05;102427.50;5051860;28;20049;-54
2023/02/07 04:27:07;;;;;;;13.63;9.23;;;;;;;14.06;38.03;102415.22;5051888;28;20045;-54
2023/02/07 04:29:36;;;;;;;14.88;9.65;;;;;;;14.02;37.89;102408.22;5051749;28;20045;-54
2023/02/07 04:32:04;;;;;;;16.67;10.55;;;;;;;13.99;37.98;102408.34;5051691;28;20612;-52
2023/02/07 04:34:32;;;;;;;14.13;9.60;;;;;;;13.95;38.06;102401.34;5051467;28;20051;-52
2023/02/07 04:37:00;;;;;;;14.35;9.43;;;;;;;13.91;38.20;102397.94;5051867;28;20057;-53
2023/02/07 04:39:29;;;;;;;14.38;9.73;;;;;;;13.90;38.45;102409.59;5051525;28;20055;-50
2023/02/07 04:41:57;;;;;;;15.35;9.05;;;;;;;13.94;38.57;102418.38;5051435;28;20608;-51
2023/02/07 04:44:26;;;;;;;14.57;9.70;;;;;;;14.01;38.71;102422.59;5051300;28;20119;-50
2023/02/07 04:46:55;;;;;;;16.45;9.77;;;;;;;14.09;38.43;102417.78;5051554;28;20049;-49
2023/02/07 04:49:23;;;;;;;14.90;9.30;;;;;;;14.17;38.43;102431.75;5051279;28;20497;-52
2023/02/07 04:51:51;;;;;;;14.88;10.00;;;;;;;14.22;38.33;102427.06;5051435;28;20556;-54
2023/02/07 04:54:19;;;;;;;13.50;9.10;;;;;;;14.32;38.23;102441.88;5051409;28;20045;-53
2023/02/07 04:56:47;;;;;;;12.85;9.05;;;;;;;14.38;38.15;102439.84;5051338;28;20120;-50
2023/02/07 04:59:15;;;;;;;14.48;9.20;;;;;;;14.43;38.00;102432.50;5051502;28;20052;-50
2023/02/07 05:01:45;;;;;;;11.80;8.32;;;;;;;14.53;38.04;102452.69;5051067;28;20045;-52
2023/02/07 05:04:13;;;;;;;12.95;9.07;;;;;;;14.62;37.83;102454.97;5051274;28;20102;-50
2023/02/07 05:06:41;;;;;;;12.90;9.35;;;;;;;14.70;37.79;102458.22;5051205;28;20053;-50
2023/02/07 05:09:09;;;;;;;13.93;9.07;;;;;;;14.77;37.86;102461.53;5051093;28;20079;-50
2023/02/07 05:11:37;;;;;;;14.68;9.80;;;;;;;14.86;37.64;102470.06;5051405;28;20049;-53
2023/02/07 05:14:05;;;;;;;13.27;8.85;;;;;;;14.94;37.64;102474.22;5053441;28;20044;-50
2023/02/07 05:16:34;;;;;;;12.45;9.00;;;;;;;15.01;37.53;102476.56;5055009;28;20508;-49
2023/02/07 05:19:03;;;;;;;13.82;9.32;;;;;;;15.11;37.48;102477.06;5054865;28;20103;-49
2023/02/07 05:21:32;;;;;;;13.82;9.18;;;;;;;15.19;37.39;102474.91;5055039;28;20483;-49
2023/02/07 05:24:00;;;;;;;13.20;9.48;;;;;;;15.27;37.20;102480.81;5054983;28;20076;-52
2023/02/07 05:26:28;;;;;;;14.23;9.38;;;;;;;15.36;37.11;102484.91;5055079;28;20052;-50
2023/02/07 05:28:56;;;;;;;13.10;9.02;;;;;;;15.42;37.13;102485.50;5054615;28;20081;-52
2023/02/07 05:33:02;;;;;;;13.73;9.00;;;;;;;15.52;36.97;102482.38;5054803;28;20072;-50
2023/02/07 05:34:13;;;;;;;13.07;8.60;;;;;;;15.57;36.81;102489.31;5054627;28;20048;-50
2023/02/07 05:36:41;;;;;;;15.27;9.32;;;;;;;15.59;36.72;102481.16;5054665;28;20059;-52
2023/02/07 05:39:10;;;;;;;14.05;9.00;;;;;;;15.59;36.80;102475.78;5054622;28;20041;-49
2023/02/07 05:41:38;;;;;;;13.52;9.05;;;;;;;15.61;36.83;102476.63;5054624;28;20051;-51
2023/02/07 05:44:06;;;;;;;15.35;9.52;;;;;;;15.60;36.75;102482.91;5054794;28;20478;-51
2023/02/07 05:46:34;;;;;;;14.00;9.23;;;;;;;15.58;36.78;102485.66;5054386;28;20049;-52
2023/02/07 05:49:03;;;;;;;13.43;9.25;;;;;;;15.59;36.84;102487.41;5053026;28;20049;-51
2023/02/07 05:51:33;;;;;;;13.65;9.27;;;;;;;15.61;36.73;102492.75;5054352;28;20073;-51
2023/02/07 05:54:01;;;;;;;15.52;9.85;;;;;;;15.61;36.73;102490.94;5054128;28;20045;-50
2023/02/07 05:56:29;;;;;;;14.52;9.05;;;;;;;15.62;36.66;102497.19;5054239;28;20378;-54
2023/02/07 05:58:57;;;;;;;14.00;9.00;;;;;;;15.63;36.67;102489.06;5054149;28;20041;-51
2023/02/07 06:01:26;;;;;;;12.55;8.63;;;;;;;15.66;36.76;102486.22;5053944;28;20136;-51
2023/02/07 06:03:54;;;;;;;13.40;9.00;;;;;;;15.71;36.76;102481.50;5053951;28;20124;-52
2023/02/07 06:06:22;;;;;;;11.82;8.65;;;;;;;15.75;36.75;102484.94;5053915;28;20041;-50
2023/02/07 06:08:52;;;;;;;12.65;9.05;;;;;;;15.76;36.51;102472.34;5053837;28;20080;-50
2023/02/07 06:11:20;;;;;;;13.90;8.95;;;;;;;15.84;36.49;102492.59;5054185;28;20059;-51
2023/02/07 06:13:49;;;;;;;12.32;8.63;;;;;;;15.89;36.56;102486.97;5053767;28;20045;-52
2023/02/07 06:16:17;;;;;;;13.80;8.80;;;;;;;15.90;36.45;102489.59;5053790;28;20045;-52
2023/02/07 06:18:46;;;;;;;12.80;8.57;;;;;;;15.89;36.43;102482.47;5053732;28;20084;-52
2023/02/07 06:21:14;;;;;;;12.73;8.70;;;;;;;15.90;36.31;102486.88;5053472;28;20048;-54
2023/02/07 06:23:42;;;;;;;15.68;9.65;;;;;;;15.92;36.46;102484.13;5053428;28;20211;-50
2023/02/07 06:26:12;;;;;;;13.95;9.13;;;;;;;15.96;36.79;102483.06;5053831;28;20048;-52
2023/02/07 06:28:40;;;;;;;13.02;8.95;;;;;;;16.03;37.03;102482.69;5053458;28;20111;-51
2023/02/07 06:31:09;;;;;;;13.80;8.85;;;;;;;16.13;36.81;102490.31;5053353;28;20049;-52
2023/02/07 06:33:37;;;;;;;14.52;9.07;;;;;;;16.18;36.80;102486.44;5053156;28;20041;-52
2023/02/07 06:36:06;;;;;;;15.60;9.43;;;;;;;16.19;37.13;102477.41;5053387;28;20045;-53
2023/02/07 06:38:34;;;;;;;11.98;8.50;;;;;;;16.22;36.91;102481.81;5053342;28;20052;-51
2023/02/07 06:41:02;;;;;;;12.70;8.75;;;;;;;16.22;37.17;102477.28;5053186;28;20052;-50
2023/02/07 06:43:31;;;;;;;13.55;8.85;;;;;;;16.21;37.09;102469.25;5053309;28;20068;-52
2023/02/07 06:46:00;;;;;;;15.40;9.32;;;;;;;16.20;37.22;102462.13;5052967;28;20053;-51
2023/02/07 06:48:28;;;;;;;15.38;9.48;;;;;;;16.22;37.27;102454.88;5052571;28;20479;-49
2023/02/07 06:50:56;;;;;;;13.82;8.95;;;;;;;16.24;37.40;102458.38;5052818;28;20044;-52
2023/02/07 06:53:25;;;;;;;14.15;9.13;;;;;;;16.23;37.42;102460.19;5052932;28;20354;-49
2023/02/07 06:55:53;;;;;;;14.15;9.15;;;;;;;16.26;37.56;102476.19;5052940;28;20095;-51
2023/02/07 06:58:21;;;;;;;17.08;9.13;;;;;;;16.26;37.55;102465.41;5052780;28;20049;-51
2023/02/07 07:00:51;;;;;;;16.58;9.25;;;;;;;16.28;37.64;102468.91;5052461;28;20052;-53
2023/02/07 07:03:21;;;;;;;14.55;9.35;;;;;;;16.34;37.59;102459.66;5052559;28;20211;-54
2023/02/07 07:05:49;;;;;;;14.52;9.10;;;;;;;16.39;37.46;102468.38;5052684;28;20057;-51
2023/02/07 07:08:18;;;;;;;15.73;9.18;;;;;;;16.43;37.60;102463.72;5052862;28;20132;-52
2023/02/07 07:10:46;;;;;;;12.73;9.05;;;;;;;16.46;37.35;102463.56;5052671;28;20045;-51
2023/02/07 07:13:14;;;;;;;14.95;9.00;;;;;;;16.51;37.40;102464.22;5052661;28;20041;-52
2023/02/07 07:15:42;;;;;;;16.15;9.93;;;;;;;16.53;37.32;102465.88;5052761;28;20098;-52
2023/02/07 07:18:12;;;;;;;16.85;8.70;;;;;;;16.60;37.18;102467.31;5052811;28;20541;-51
2023/02/07 07:20:41;;;;;;;13.85;8.90;;;;;;;16.68;37.22;102457.94;5052570;28;20051;-51
2023/02/07 07:23:09;;;;;;;14.32;8.70;;;;;;;16.75;36.91;102462.13;5052438;28;20103;-52
2023/02/07 07:25:37;;;;;;;12.90;8.48;;;;;;;16.78;37.01;102462.81;5050889;28;20496;-51
2023/02/07 07:28:06;;;;;;;12.77;8.93;;;;;;;16.83;36.90;102462.59;5052098;28;20112;-52
2023/02/07 07:30:34;;;;;;;16.95;9.63;;;;;;;16.87;36.88;102461.47;5052202;28;20394;-53
2023/02/07 07:33:02;;;;;;;15.90;9.63;;;;;;;16.89;36.78;102462.28;5052576;28;20053;-52
2023/02/07 07:35:32;;;;;;;14.48;9.35;;;;;;;16.94;36.80;102473.69;5051829;28;20474;-54
2023/02/07 07:38:00;;;;;;;14.93;8.95;;;;;;;16.96;36.72;102473.59;5052082;28;20049;-52
2023/02/07 07:40:29;;;;;;;15.60;9.30;;;;;;;16.94;36.72;102476.41;5052158;28;20055;-50
2023/02/07 07:42:57;;;;;;;12.48;9.13;;;;;;;16.89;36.71;102470.38;5052185;28;20040;-50
2023/02/07 07:45:25;;;;;;;14.35;9.63;;;;;;;16.92;36.72;102474.72;5052122;28;20064;-53
2023/02/07 07:47:53;;;;;;;13.75;9.40;;;;;;;16.92;36.58;102472.91;5052033;28;20045;-50
2023/02/07 07:50:22;;;;;;;15.57;9.18;;;;;;;16.92;36.81;102474.72;5051898;28;20106;-51
2023/02/07 07:52:51;;;;;;;14.23;9.52;;;;;;;16.91;36.61;102471.16;5051962;28;20052;-53
2023/02/07 07:55:20;;;;;;;15.63;9.38;;;;;;;16.93;36.72;102474.66;5051921;28;20071;-54
2023/02/07 07:57:48;;;;;;;15.40;9.40;;;;;;;16.95;36.72;102477.25;5051977;28;20055;-54
2023/02/07 08:00:16;;;;;;;15.63;8.90;;;;;;;16.94;36.99;102476.41;5051934;28;20110;-52
2023/02/07 08:02:47;;;;;;;13.70;9.07;;;;;;;16.97;36.82;102476.22;5050575;28;20079;-54
2023/02/07 08:05:15;;;;;;;14.25;9.75;;;;;;;16.96;36.64;102466.41;5051752;28;20500;-52
2023/02/07 08:07:43;;;;;;;12.40;8.73;;;;;;;16.98;36.71;102471.69;5051616;28;20128;-54
2023/02/07 08:10:13;;;;;;;14.63;9.38;;;;;;;16.94;36.70;102460.22;5052069;28;20139;-52
2023/02/07 08:12:42;;;;;;;14.30;9.10;;;;;;;16.92;36.77;102462.13;5051765;28;20049;-51
2023/02/07 08:15:12;;;;;;;13.63;9.43;;;;;;;16.85;36.92;102460.69;5051718;28;20052;-54
2023/02/07 08:17:41;;;;;;;13.13;9.38;;;;;;;16.81;36.81;102454.59;5051581;28;20051;-55
2023/02/07 08:20:12;;;;;;;13.20;9.35;;;;;;;16.74;36.76;102457.69;5051674;28;20052;-52
2023/02/07 08:22:40;;;;;;;14.63;9.70;;;;;;;16.72;36.95;102464.97;5051713;28;20486;-52
2023/02/07 08:25:09;;;;;;;14.60;9.77;;;;;;;16.67;36.95;102467.84;5051494;28;20099;-54
2023/02/07 08:27:38;;;;;;;15.40;9.95;;;;;;;16.60;37.02;102469.13;5051554;28;20275;-52
2023/02/07 08:30:09;;;;;;;15.23;9.77;;;;;;;16.54;36.88;102469.44;5051299;28;20122;-53
2023/02/07 08:32:40;;;;;;;;;;;;;;;16.46;36.85;102464.44;5051783;28;20124;-53
2023/02/07 08:35:08;;;;;;;14.50;9.10;;;;;;;16.38;36.94;102454.97;5051307;28;19974;-50
2023/02/07 08:37:37;;;;;;;16.08;9.05;;;;;;;16.30;37.06;102464.31;5051462;28;20401;-52
2023/02/07 08:40:06;;;;;;;13.57;9.88;;;;;;;16.27;37.02;102474.34;5051392;28;20461;-53
2023/02/07 08:42:35;;;;;;;15.25;9.82;;;;;;;16.19;36.68;102473.84;5051071;28;20045;-52
2023/02/07 08:45:05;;;;;;;13.82;9.43;;;;;;;16.13;36.58;102471.47;5051367;28;20091;-51
2023/02/07 08:47:33;;;;;;;13.82;9.75;;;;;;;16.08;36.33;102476.19;5051222;28;20142;-50
2023/02/07 08:50:01;;;;;;;14.77;10.07;;;;;;;16.00;36.27;102474.75;5055437;28;20080;-50
2023/02/07 08:52:32;;;;;;;16.58;11.23;;;;;;;15.95;36.14;102471.41;5055476;28;20106;-51
2023/02/07 08:55:00;;;;;;;15.98;10.30;;;;;;;15.92;36.38;102467.97;5055549;28;20506;-50
2023/02/07 08:57:28;;;;;;;19.17;11.77;;;;;;;15.84;36.00;102465.66;5055249;28;20379;-52
2023/02/07 08:59:58;;;;;;;14.98;10.13;;;;;;;15.81;36.13;102476.56;5054978;28;20490;-52
2023/02/07 09:02:28;;;;;;;16.67;10.18;;;;;;;15.76;36.18;102480.44;5055392;28;20398;-52
2023/02/07 09:04:56;;;;;;;13.98;9.73;;;;;;;15.68;36.44;102470.00;5055071;28;20128;-52
2023/02/07 09:07:24;;;;;;;13.38;9.35;;;;;;;15.64;36.51;102477.38;5055088;28;20053;-52
2023/02/07 09:09:54;;;;;;;15.07;10.18;;;;;;;15.57;36.60;102472.31;5055069;28;20402;-52
2023/02/07 09:12:22;;;;;;;13.15;9.63;;;;;;;15.55;36.64;102474.19;5055499;28;20405;-53
2023/02/07 09:14:50;;;;;;;16.77;9.73;;;;;;;15.50;36.73;102476.22;5055366;28;20490;-52
2023/02/07 09:17:19;;;;;;;14.55;9.70;;;;;;;15.41;36.88;102470.28;5055026;28;20555;-52
2023/02/07 09:19:49;;;;;;;16.42;10.02;;;;;;;15.42;36.91;102480.09;5054905;28;20052;-51
2023/02/07 09:22:17;;;;;;;16.08;10.18;;;;;;;15.38;36.58;102475.81;5054876;28;20099;-52
2023/02/07 09:24:45;;;;;;;14.68;9.82;;;;;;;15.34;36.78;102479.56;5054807;28;20498;-53
2023/02/07 09:27:13;;;;;;;16.42;10.95;;;;;;;15.30;36.58;102477.97;5054634;28;20127;-51
2023/02/07 09:29:42;;;;;;;17.90;10.15;;;;;;;15.28;36.63;102484.38;5054964;28;20087;-51
2023/02/07 09:32:10;;;;;;;16.55;10.07;;;;;;;15.24;36.76;102480.94;5054720;28;20482;-51
2023/02/07 09:34:39;;;;;;;15.55;10.57;;;;;;;15.16;37.06;102478.59;5055020;28;20056;-53
2023/02/07 09:37:08;;;;;;;13.82;9.23;;;;;;;15.18;36.93;102481.22;5054604;28;20404;-52
2023/02/07 09:39:37;;;;;;;17.08;10.15;;;;;;;15.13;36.88;102483.22;5054669;28;20037;-52
2023/02/07 09:42:23;;;;;;;14.88;9.75;;;;;;;15.13;36.56;102480.53;5054557;28;20077;-54
2023/02/07 09:44:59;;;;;;;15.45;9.95;;;;;;;15.07;36.79;102472.75;5054391;28;20052;-52
2023/02/07 09:47:28;;;;;;;13.55;9.65;;;;;;;15.07;36.85;102473.63;5054309;28;20505;-51
2023/02/07 09:50:02;;;;;;;13.93;9.30;;;;;;;15.06;36.89;102473.72;5054299;28;20068;-51
2023/02/07 09:52:37;;;;;;;13.65;9.52;;;;;;;15.05;36.68;102469.25;5054196;28;20125;-51
2023/02/07 09:55:14;;;;;;;15.48;9.35;;;;;;;15.03;35.76;102471.13;5054423;28;20049;-51
2023/02/07 09:57:48;;;;;;;12.75;8.75;;;;;;;14.99;35.64;102459.66;5054226;28;20049;-50
2023/02/07 10:00:21;;;;;;;13.23;9.32;;;;;;;15.02;35.32;102458.63;5053639;28;20055;-54
2023/02/07 10:02:56;;;;;;;15.85;10.48;;;;;;;15.01;35.19;102463.13;5054125;28;20049;-52
2023/02/07 10:05:29;;;;;;;16.83;10.77;;;;;;;15.01;34.25;102462.25;5054160;28;20084;-52
2023/02/07 10:07:59;;;;;;;14.63;10.05;;;;;;;14.99;34.13;102453.41;5053902;28;20045;-52
2023/02/07 10:10:38;;;;;;;13.60;9.45;;;;;;;15.01;34.72;102457.75;5053874;28;20045;-50
2023/02/07 10:13:26;;;;;;;13.48;9.45;;;;;;;15.02;35.46;102453.25;5053688;28;20307;-52
2023/02/07 10:16:13;;;;;;;14.27;9.80;;;;;;;15.02;35.46;102455.94;5053435;28;20053;-52
2023/02/07 10:18:47;;;;;;;15.65;9.82;;;;;;;15.04;35.72;102454.06;5053506;28;20049;-51
2023/02/07 10:21:28;;;;;;;13.55;8.88;;;;;;;15.05;36.03;102448.63;5053592;28;20072;-54
2023/02/07 10:24:15;;;;;;;12.93;9.00;;;;;;;15.04;36.26;102438.81;5053643;28;20060;-52
2023/02/07 10:26:52;;;;;;;12.93;9.00;;;;;;;15.06;36.48;102445.00;5053729;28;20040;-52
2023/02/07 10:29:35;;;;;;;12.65;8.73;;;;;;;15.06;36.74;102438.75;5053630;28;20049;-51
2023/02/07 10:32:13;;;;;;;13.73;8.50;;;;;;;15.08;36.73;102437.75;5053286;28;20044;-51
2023/02/07 10:34:46;;;;;;;14.15;9.48;;;;;;;15.10;36.64;102440.38;5053483;28;20563;-51
2023/02/07 10:37:21;;;;;;;12.95;9.52;;;;;;;15.13;36.26;102446.47;5053753;28;20049;-49
2023/02/07 10:40:02;;;;;;;13.23;8.57;;;;;;;15.13;36.19;102441.09;5053487;28;20063;-52
2023/02/07 10:42:34;;;;;;;12.07;8.43;;;;;;;15.14;36.18;102436.59;5053042;28;20059;-52
2023/02/07 10:45:02;;;;;;;12.23;8.20;;;;;;;15.16;36.47;102429.34;5053326;28;20102;-51
2023/02/07 10:47:37;;;;;;;12.27;8.90;;;;;;;15.18;36.36;102425.63;5052997;28;20041;-50
2023/02/07 10:50:10;;;;;;;13.70;8.63;;;;;;;15.19;36.05;102418.44;5052888;28;20308;-50
2023/02/07 10:52:44;;;;;;;12.63;8.20;;;;;;;15.21;36.14;102427.31;5052779;28;20136;-51
2023/02/07 10:55:17;;;;;;;12.45;8.32;;;;;;;15.24;36.15;102432.53;5052683;28;20133;-51
2023/02/07 10:57:53;;;;;;;11.55;8.50;;;;;;;15.22;35.92;102423.66;5052698;28;20052;-51
2023/02/07 11:00:35;;;;;;;12.75;8.48;;;;;;;15.23;35.89;102420.03;5052475;28;20111;-52
2023/02/07 11:03:05;;;;;;;13.18;8.18;;;;;;;15.25;35.65;102423.56;5052800;28;20053;-51
2023/02/07 11:05:37;;;;;;;11.40;7.97;;;;;;;15.24;35.42;102427.16;5052825;28;20140;-53
2023/02/07 11:08:21;;;;;;;12.88;8.30;;;;;;;15.27;35.81;102427.03;5052855;28;20049;-52
2023/02/07 11:10:51;;;;;;;;;;;;;;;15.29;35.74;102424.28;5052266;28;20090;-51
2023/02/07 11:13:22;;;;;;;11.95;8.07;;;;;;;15.30;35.67;102426.03;5052738;28;19921;-52
2023/02/07 11:15:55;;;;;;;11.65;7.88;;;;;;;15.26;35.51;102409.16;5052457;28;20065;-54
2023/02/07 11:18:37;;;;;;;12.13;7.90;;;;;;;15.32;35.37;102422.31;5052430;28;20073;-53
2023/02/07 11:21:08;;;;;;;11.93;7.50;;;;;;;15.33;35.49;102420.50;5052318;28;20102;-51
2023/02/07 11:23:36;;;;;;;11.60;6.88;;;;;;;15.34;35.53;102420.41;5052263;28;20457;-50
2023/02/07 11:26:06;;;;;;;12.35;7.90;;;;;;;15.37;35.29;102414.91;5052272;28;20448;-52
2023/02/07 11:28:35;;;;;;;12.23;7.95;;;;;;;15.38;35.57;102407.72;5052252;28;20124;-50
2023/02/07 11:31:07;;;;;;;13.57;8.00;;;;;;;15.36;35.68;102396.19;5052138;28;20127;-50
2023/02/07 11:33:36;;;;;;;14.93;8.47;;;;;;;15.36;35.88;102394.34;5052425;28;20045;-50
2023/02/07 11:36:11;;;;;;;11.88;8.32;;;;;;;15.41;35.73;102397.69;5052239;28;20378;-50